sensor_id;sensor_type;location;lat;lon;timestamp;P1;durP1;ratioP1;P2;durP2;ratioP2
65998;SDS011;52766;56.008;37.440;2024-03-06T00:02:07;3.58;;;1.75;;
65998;SDS011;52766;56.008;37.440;2024-03-06T00:04:33;5.70;;;2.08;;
65998;SDS011;52766;56.008;37.440;2024-03-06T00:06:59;7.65;;;1.73;;
65998;SDS011;52766;56.008;37.440;2024-03-06T00:09:25;4.18;;;2.13;;
65998;SDS011;52766;56.008;37.440;2024-03-06T00:11:54;4.95;;;1.95;;
65998;SDS011;52766;56.008;37.440;2024-03-06T00:14:21;10.25;;;1.90;;
65998;SDS011;52766;56.008;37.440;2024-03-06T00:16:47;6.53;;;2.13;;
65998;SDS011;52766;56.008;37.440;2024-03-06T00:19:16;7.47;;;1.88;;
65998;SDS011;52766;56.008;37.440;2024-03-06T00:21:42;6.80;;;2.47;;
65998;SDS011;52766;56.008;37.440;2024-03-06T00:24:11;8.88;;;2.67;;
65998;SDS011;52766;56.008;37.440;2024-03-06T00:26:41;10.13;;;2.28;;
65998;SDS011;52766;56.008;37.440;2024-03-06T00:29:11;7.68;;;2.20;;
65998;SDS011;52766;56.008;37.440;2024-03-06T00:31:41;6.57;;;1.80;;
65998;SDS011;52766;56.008;37.440;2024-03-06T00:34:10;6.80;;;2.75;;
65998;SDS011;52766;56.008;37.440;2024-03-06T00:36:37;8.45;;;2.50;;
65998;SDS011;52766;56.008;37.440;2024-03-06T00:39:03;6.55;;;1.90;;
65998;SDS011;52766;56.008;37.440;2024-03-06T00:41:30;4.32;;;2.13;;
65998;SDS011;52766;56.008;37.440;2024-03-06T00:43:56;3.53;;;1.70;;
65998;SDS011;52766;56.008;37.440;2024-03-06T00:46:22;8.77;;;2.40;;
65998;SDS011;52766;56.008;37.440;2024-03-06T00:48:48;7.53;;;3.40;;
65998;SDS011;52766;56.008;37.440;2024-03-06T00:51:14;8.05;;;3.00;;
65998;SDS011;52766;56.008;37.440;2024-03-06T00:53:40;5.85;;;2.67;;
65998;SDS011;52766;56.008;37.440;2024-03-06T00:56:06;7.22;;;2.60;;
65998;SDS011;52766;56.008;37.440;2024-03-06T00:58:32;4.38;;;2.25;;
65998;SDS011;52766;56.008;37.440;2024-03-06T01:00:58;7.68;;;2.53;;
65998;SDS011;52766;56.008;37.440;2024-03-06T01:03:24;5.05;;;2.75;;
65998;SDS011;52766;56.008;37.440;2024-03-06T01:05:50;3.33;;;1.63;;
65998;SDS011;52766;56.008;37.440;2024-03-06T01:08:19;3.90;;;1.80;;
65998;SDS011;52766;56.008;37.440;2024-03-06T01:10:45;6.82;;;2.72;;
65998;SDS011;52766;56.008;37.440;2024-03-06T01:13:10;3.35;;;1.70;;
65998;SDS011;52766;56.008;37.440;2024-03-06T01:15:37;3.45;;;2.03;;
65998;SDS011;52766;56.008;37.440;2024-03-06T01:18:03;4.88;;;1.60;;
65998;SDS011;52766;56.008;37.440;2024-03-06T01:20:29;5.80;;;0.88;;
65998;SDS011;52766;56.008;37.440;2024-03-06T01:22:55;5.57;;;1.42;;
65998;SDS011;52766;56.008;37.440;2024-03-06T01:25:21;2.80;;;1.50;;
65998;SDS011;52766;56.008;37.440;2024-03-06T01:27:49;6.00;;;1.80;;
65998;SDS011;52766;56.008;37.440;2024-03-06T01:30:15;4.68;;;1.63;;
65998;SDS011;52766;56.008;37.440;2024-03-06T01:32:41;4.75;;;1.48;;
65998;SDS011;52766;56.008;37.440;2024-03-06T01:35:06;3.33;;;0.82;;
65998;SDS011;52766;56.008;37.440;2024-03-06T01:37:32;6.68;;;1.73;;
65998;SDS011;52766;56.008;37.440;2024-03-06T01:39:58;2.80;;;1.85;;
65998;SDS011;52766;56.008;37.440;2024-03-06T01:42:24;6.43;;;1.80;;
65998;SDS011;52766;56.008;37.440;2024-03-06T01:44:50;3.28;;;1.73;;
65998;SDS011;52766;56.008;37.440;2024-03-06T01:47:16;4.85;;;1.08;;
65998;SDS011;52766;56.008;37.440;2024-03-06T01:49:42;12.45;;;3.10;;
65998;SDS011;52766;56.008;37.440;2024-03-06T01:52:09;6.78;;;3.80;;
65998;SDS011;52766;56.008;37.440;2024-03-06T01:54:38;3.15;;;1.05;;
65998;SDS011;52766;56.008;37.440;2024-03-06T01:57:04;12.18;;;2.22;;
65998;SDS011;52766;56.008;37.440;2024-03-06T01:59:31;3.58;;;0.82;;
65998;SDS011;52766;56.008;37.440;2024-03-06T02:01:57;6.07;;;1.58;;
65998;SDS011;52766;56.008;37.440;2024-03-06T02:04:24;3.28;;;1.50;;
65998;SDS011;52766;56.008;37.440;2024-03-06T02:06:53;1.73;;;0.95;;
65998;SDS011;52766;56.008;37.440;2024-03-06T02:09:24;2.65;;;1.20;;
65998;SDS011;52766;56.008;37.440;2024-03-06T02:11:50;2.75;;;1.38;;
65998;SDS011;52766;56.008;37.440;2024-03-06T02:14:16;3.92;;;1.92;;
65998;SDS011;52766;56.008;37.440;2024-03-06T02:16:42;1.88;;;1.02;;
65998;SDS011;52766;56.008;37.440;2024-03-06T02:19:37;7.00;;;1.50;;
65998;SDS011;52766;56.008;37.440;2024-03-06T02:22:09;12.07;;;1.50;;
65998;SDS011;52766;56.008;37.440;2024-03-06T02:24:36;4.85;;;1.77;;
65998;SDS011;52766;56.008;37.440;2024-03-06T02:27:03;1.52;;;1.13;;
65998;SDS011;52766;56.008;37.440;2024-03-06T02:29:33;2.28;;;1.17;;
65998;SDS011;52766;56.008;37.440;2024-03-06T02:31:59;8.80;;;2.47;;
65998;SDS011;52766;56.008;37.440;2024-03-06T02:34:29;3.40;;;0.88;;
65998;SDS011;52766;56.008;37.440;2024-03-06T02:36:56;5.88;;;1.75;;
65998;SDS011;52766;56.008;37.440;2024-03-06T02:39:22;3.75;;;2.17;;
65998;SDS011;52766;56.008;37.440;2024-03-06T02:41:48;5.20;;;1.67;;
65998;SDS011;52766;56.008;37.440;2024-03-06T02:44:14;1.45;;;1.15;;
65998;SDS011;52766;56.008;37.440;2024-03-06T02:46:47;5.75;;;1.50;;
65998;SDS011;52766;56.008;37.440;2024-03-06T02:49:15;2.95;;;1.48;;
65998;SDS011;52766;56.008;37.440;2024-03-06T02:51:41;5.90;;;2.22;;
65998;SDS011;52766;56.008;37.440;2024-03-06T02:54:07;6.50;;;2.50;;
65998;SDS011;52766;56.008;37.440;2024-03-06T02:56:32;10.30;;;2.65;;
65998;SDS011;52766;56.008;37.440;2024-03-06T02:58:58;4.13;;;1.58;;
65998;SDS011;52766;56.008;37.440;2024-03-06T03:01:28;8.07;;;1.90;;
65998;SDS011;52766;56.008;37.440;2024-03-06T03:03:54;5.53;;;1.70;;
65998;SDS011;52766;56.008;37.440;2024-03-06T03:06:20;4.25;;;1.30;;
65998;SDS011;52766;56.008;37.440;2024-03-06T03:08:45;3.70;;;1.50;;
65998;SDS011;52766;56.008;37.440;2024-03-06T03:11:12;3.35;;;1.40;;
65998;SDS011;52766;56.008;37.440;2024-03-06T03:13:38;8.35;;;2.42;;
65998;SDS011;52766;56.008;37.440;2024-03-06T03:16:04;3.40;;;1.60;;
65998;SDS011;52766;56.008;37.440;2024-03-06T03:18:31;1.92;;;1.10;;
65998;SDS011;52766;56.008;37.440;2024-03-06T03:21:00;1.23;;;0.38;;
65998;SDS011;52766;56.008;37.440;2024-03-06T03:23:26;3.72;;;1.42;;
65998;SDS011;52766;56.008;37.440;2024-03-06T03:25:53;0.95;;;0.85;;
65998;SDS011;52766;56.008;37.440;2024-03-06T03:28:19;2.88;;;1.52;;
65998;SDS011;52766;56.008;37.440;2024-03-06T03:30:46;4.07;;;1.20;;
65998;SDS011;52766;56.008;37.440;2024-03-06T03:33:11;6.05;;;2.10;;
65998;SDS011;52766;56.008;37.440;2024-03-06T03:35:37;6.70;;;2.10;;
65998;SDS011;52766;56.008;37.440;2024-03-06T03:38:03;1.17;;;0.98;;
65998;SDS011;52766;56.008;37.440;2024-03-06T03:40:30;3.80;;;1.63;;
65998;SDS011;52766;56.008;37.440;2024-03-06T03:42:59;6.63;;;2.70;;
65998;SDS011;52766;56.008;37.440;2024-03-06T03:45:31;1.95;;;1.10;;
65998;SDS011;52766;56.008;37.440;2024-03-06T03:48:00;0.63;;;0.35;;
65998;SDS011;52766;56.008;37.440;2024-03-06T03:50:28;2.58;;;1.17;;
65998;SDS011;52766;56.008;37.440;2024-03-06T03:52:56;2.42;;;1.60;;
65998;SDS011;52766;56.008;37.440;2024-03-06T03:55:31;4.35;;;1.17;;
65998;SDS011;52766;56.008;37.440;2024-03-06T03:57:58;1.13;;;0.70;;
65998;SDS011;52766;56.008;37.440;2024-03-06T04:00:27;2.25;;;1.23;;
65998;SDS011;52766;56.008;37.440;2024-03-06T04:03:03;3.28;;;1.38;;
65998;SDS011;52766;56.008;37.440;2024-03-06T04:06:02;1.63;;;0.82;;
65998;SDS011;52766;56.008;37.440;2024-03-06T04:08:44;4.10;;;1.63;;
65998;SDS011;52766;56.008;37.440;2024-03-06T04:11:12;3.33;;;1.48;;
65998;SDS011;52766;56.008;37.440;2024-03-06T04:13:43;4.28;;;2.00;;
65998;SDS011;52766;56.008;37.440;2024-03-06T04:16:17;9.88;;;2.55;;
65998;SDS011;52766;56.008;37.440;2024-03-06T04:18:49;5.35;;;1.65;;
65998;SDS011;52766;56.008;37.440;2024-03-06T04:21:19;3.95;;;2.08;;
65998;SDS011;52766;56.008;37.440;2024-03-06T04:23:51;3.80;;;1.50;;
65998;SDS011;52766;56.008;37.440;2024-03-06T04:26:35;4.50;;;1.40;;
65998;SDS011;52766;56.008;37.440;2024-03-06T04:29:03;7.57;;;2.03;;
65998;SDS011;52766;56.008;37.440;2024-03-06T04:31:42;6.93;;;2.05;;
65998;SDS011;52766;56.008;37.440;2024-03-06T04:34:22;1.45;;;0.90;;
65998;SDS011;52766;56.008;37.440;2024-03-06T04:36:54;1.55;;;0.98;;
65998;SDS011;52766;56.008;37.440;2024-03-06T04:39:21;4.20;;;1.60;;
65998;SDS011;52766;56.008;37.440;2024-03-06T04:41:50;4.47;;;2.08;;
65998;SDS011;52766;56.008;37.440;2024-03-06T04:44:17;2.92;;;1.48;;
65998;SDS011;52766;56.008;37.440;2024-03-06T04:46:44;1.73;;;0.85;;
65998;SDS011;52766;56.008;37.440;2024-03-06T04:49:18;6.93;;;1.88;;
65998;SDS011;52766;56.008;37.440;2024-03-06T04:51:52;6.47;;;2.58;;
65998;SDS011;52766;56.008;37.440;2024-03-06T04:54:20;3.42;;;1.08;;
65998;SDS011;52766;56.008;37.440;2024-03-06T04:56:48;3.67;;;1.35;;
65998;SDS011;52766;56.008;37.440;2024-03-06T04:59:19;6.45;;;1.92;;
65998;SDS011;52766;56.008;37.440;2024-03-06T05:01:47;3.00;;;1.58;;
65998;SDS011;52766;56.008;37.440;2024-03-06T05:04:16;7.13;;;2.55;;
65998;SDS011;52766;56.008;37.440;2024-03-06T05:06:48;4.88;;;1.38;;
65998;SDS011;52766;56.008;37.440;2024-03-06T05:09:16;3.88;;;1.90;;
65998;SDS011;52766;56.008;37.440;2024-03-06T05:11:46;6.47;;;2.22;;
65998;SDS011;52766;56.008;37.440;2024-03-06T05:14:17;3.38;;;1.73;;
65998;SDS011;52766;56.008;37.440;2024-03-06T05:16:43;3.42;;;1.63;;
65998;SDS011;52766;56.008;37.440;2024-03-06T05:19:12;4.65;;;2.05;;
65998;SDS011;52766;56.008;37.440;2024-03-06T05:21:41;3.65;;;1.55;;
65998;SDS011;52766;56.008;37.440;2024-03-06T05:24:16;3.92;;;1.52;;
65998;SDS011;52766;56.008;37.440;2024-03-06T05:27:21;5.85;;;1.85;;
65998;SDS011;52766;56.008;37.440;2024-03-06T05:29:55;4.80;;;2.00;;
65998;SDS011;52766;56.008;37.440;2024-03-06T05:32:24;3.58;;;1.60;;
65998;SDS011;52766;56.008;37.440;2024-03-06T05:34:51;5.40;;;2.03;;
65998;SDS011;52766;56.008;37.440;2024-03-06T05:37:32;5.68;;;2.40;;
65998;SDS011;52766;56.008;37.440;2024-03-06T05:40:04;4.88;;;1.77;;
65998;SDS011;52766;56.008;37.440;2024-03-06T05:42:37;9.57;;;2.13;;
65998;SDS011;52766;56.008;37.440;2024-03-06T05:45:05;6.43;;;2.58;;
65998;SDS011;52766;56.008;37.440;2024-03-06T05:47:36;6.00;;;2.13;;
65998;SDS011;52766;56.008;37.440;2024-03-06T05:50:09;5.88;;;2.53;;
65998;SDS011;52766;56.008;37.440;2024-03-06T05:52:42;6.45;;;1.88;;
65998;SDS011;52766;56.008;37.440;2024-03-06T05:55:11;4.22;;;1.85;;
65998;SDS011;52766;56.008;37.440;2024-03-06T05:57:38;6.03;;;2.63;;
65998;SDS011;52766;56.008;37.440;2024-03-06T06:00:07;6.35;;;2.55;;
65998;SDS011;52766;56.008;37.440;2024-03-06T06:02:39;27.30;;;10.10;;
65998;SDS011;52766;56.008;37.440;2024-03-06T06:05:09;36.78;;;14.07;;
65998;SDS011;52766;56.008;37.440;2024-03-06T06:08:13;24.77;;;8.98;;
65998;SDS011;52766;56.008;37.440;2024-03-06T06:10:43;7.55;;;4.32;;
65998;SDS011;52766;56.008;37.440;2024-03-06T06:13:11;13.85;;;3.67;;
65998;SDS011;52766;56.008;37.440;2024-03-06T06:15:38;12.57;;;3.63;;
65998;SDS011;52766;56.008;37.440;2024-03-06T06:18:08;8.98;;;2.83;;
65998;SDS011;52766;56.008;37.440;2024-03-06T06:20:36;4.93;;;2.70;;
65998;SDS011;52766;56.008;37.440;2024-03-06T06:23:07;9.57;;;2.70;;
65998;SDS011;52766;56.008;37.440;2024-03-06T06:25:35;9.02;;;3.17;;
65998;SDS011;52766;56.008;37.440;2024-03-06T06:28:03;10.68;;;3.47;;
65998;SDS011;52766;56.008;37.440;2024-03-06T06:30:29;7.57;;;2.53;;
65998;SDS011;52766;56.008;37.440;2024-03-06T06:32:57;7.70;;;1.85;;
65998;SDS011;52766;56.008;37.440;2024-03-06T06:35:24;7.13;;;2.42;;
65998;SDS011;52766;56.008;37.440;2024-03-06T06:37:58;5.13;;;2.80;;
65998;SDS011;52766;56.008;37.440;2024-03-06T06:40:27;8.00;;;3.05;;
65998;SDS011;52766;56.008;37.440;2024-03-06T06:42:58;6.10;;;3.38;;
65998;SDS011;52766;56.008;37.440;2024-03-06T06:45:27;6.97;;;2.25;;
65998;SDS011;52766;56.008;37.440;2024-03-06T06:47:55;10.07;;;2.22;;
65998;SDS011;52766;56.008;37.440;2024-03-06T06:50:25;4.95;;;2.67;;
65998;SDS011;52766;56.008;37.440;2024-03-06T06:52:59;6.47;;;2.58;;
65998;SDS011;52766;56.008;37.440;2024-03-06T06:55:29;7.85;;;3.88;;
65998;SDS011;52766;56.008;37.440;2024-03-06T06:57:56;18.92;;;5.03;;
65998;SDS011;52766;56.008;37.440;2024-03-06T07:00:22;8.57;;;3.67;;
65998;SDS011;52766;56.008;37.440;2024-03-06T07:02:49;13.00;;;4.35;;
65998;SDS011;52766;56.008;37.440;2024-03-06T07:08:19;6.38;;;2.65;;
65998;SDS011;52766;56.008;37.440;2024-03-06T07:10:50;8.75;;;2.80;;
65998;SDS011;52766;56.008;37.440;2024-03-06T07:13:20;9.38;;;3.05;;
65998;SDS011;52766;56.008;37.440;2024-03-06T07:15:50;11.63;;;2.05;;
65998;SDS011;52766;56.008;37.440;2024-03-06T07:18:24;15.13;;;3.13;;
65998;SDS011;52766;56.008;37.440;2024-03-06T07:20:54;12.90;;;3.33;;
65998;SDS011;52766;56.008;37.440;2024-03-06T07:23:27;12.80;;;4.85;;
65998;SDS011;52766;56.008;37.440;2024-03-06T07:25:59;7.63;;;2.25;;
65998;SDS011;52766;56.008;37.440;2024-03-06T07:28:29;8.18;;;4.30;;
65998;SDS011;52766;56.008;37.440;2024-03-06T07:30:57;17.63;;;3.67;;
65998;SDS011;52766;56.008;37.440;2024-03-06T07:33:33;13.43;;;3.75;;
65998;SDS011;52766;56.008;37.440;2024-03-06T07:36:09;13.95;;;3.10;;
65998;SDS011;52766;56.008;37.440;2024-03-06T07:41:47;5.85;;;2.03;;
65998;SDS011;52766;56.008;37.440;2024-03-06T07:44:18;8.23;;;3.00;;
65998;SDS011;52766;56.008;37.440;2024-03-06T07:46:46;9.07;;;2.28;;
65998;SDS011;52766;56.008;37.440;2024-03-06T07:49:17;5.68;;;1.98;;
65998;SDS011;52766;56.008;37.440;2024-03-06T07:51:45;6.20;;;2.10;;
65998;SDS011;52766;56.008;37.440;2024-03-06T07:54:16;6.93;;;3.20;;
65998;SDS011;52766;56.008;37.440;2024-03-06T07:56:42;10.98;;;4.05;;
65998;SDS011;52766;56.008;37.440;2024-03-06T07:59:13;6.45;;;2.63;;
65998;SDS011;52766;56.008;37.440;2024-03-06T08:01:41;5.03;;;1.92;;
65998;SDS011;52766;56.008;37.440;2024-03-06T08:04:09;5.85;;;2.80;;
65998;SDS011;52766;56.008;37.440;2024-03-06T08:06:40;8.63;;;3.03;;
65998;SDS011;52766;56.008;37.440;2024-03-06T08:09:26;5.63;;;2.40;;
65998;SDS011;52766;56.008;37.440;2024-03-06T08:11:54;7.55;;;2.35;;
65998;SDS011;52766;56.008;37.440;2024-03-06T08:14:27;9.18;;;3.58;;
65998;SDS011;52766;56.008;37.440;2024-03-06T08:16:55;7.13;;;2.30;;
65998;SDS011;52766;56.008;37.440;2024-03-06T08:19:24;4.93;;;1.88;;
65998;SDS011;52766;56.008;37.440;2024-03-06T08:21:52;4.50;;;1.95;;
65998;SDS011;52766;56.008;37.440;2024-03-06T08:24:20;6.97;;;2.20;;
65998;SDS011;52766;56.008;37.440;2024-03-06T08:26:46;5.72;;;1.75;;
65998;SDS011;52766;56.008;37.440;2024-03-06T08:29:16;4.03;;;1.10;;
65998;SDS011;52766;56.008;37.440;2024-03-06T08:31:42;5.57;;;2.00;;
65998;SDS011;52766;56.008;37.440;2024-03-06T08:34:08;2.78;;;1.30;;
65998;SDS011;52766;56.008;37.440;2024-03-06T08:36:51;4.22;;;1.27;;
65998;SDS011;52766;56.008;37.440;2024-03-06T08:39:20;4.00;;;1.50;;
65998;SDS011;52766;56.008;37.440;2024-03-06T08:41:46;5.38;;;1.40;;
65998;SDS011;52766;56.008;37.440;2024-03-06T08:47:19;5.90;;;2.10;;
65998;SDS011;52766;56.008;37.440;2024-03-06T08:50:14;5.95;;;1.35;;
65998;SDS011;52766;56.008;37.440;2024-03-06T08:52:40;3.38;;;1.33;;
65998;SDS011;52766;56.008;37.440;2024-03-06T08:55:13;7.43;;;2.08;;
65998;SDS011;52766;56.008;37.440;2024-03-06T08:57:58;5.78;;;2.08;;
65998;SDS011;52766;56.008;37.440;2024-03-06T09:00:31;2.72;;;1.40;;
65998;SDS011;52766;56.008;37.440;2024-03-06T09:03:07;5.80;;;1.83;;
65998;SDS011;52766;56.008;37.440;2024-03-06T09:05:42;4.57;;;2.08;;
65998;SDS011;52766;56.008;37.440;2024-03-06T09:08:20;5.20;;;1.50;;
65998;SDS011;52766;56.008;37.440;2024-03-06T09:10:46;4.60;;;1.50;;
65998;SDS011;52766;56.008;37.440;2024-03-06T09:13:12;8.68;;;3.38;;
65998;SDS011;52766;56.008;37.440;2024-03-06T09:15:42;10.65;;;3.78;;
65998;SDS011;52766;56.008;37.440;2024-03-06T09:18:09;10.18;;;3.08;;
65998;SDS011;52766;56.008;37.440;2024-03-06T09:20:37;6.57;;;2.30;;
65998;SDS011;52766;56.008;37.440;2024-03-06T09:23:06;3.75;;;1.70;;
65998;SDS011;52766;56.008;37.440;2024-03-06T09:25:34;5.47;;;1.45;;
65998;SDS011;52766;56.008;37.440;2024-03-06T09:28:01;6.60;;;1.70;;
65998;SDS011;52766;56.008;37.440;2024-03-06T09:30:31;5.20;;;1.65;;
65998;SDS011;52766;56.008;37.440;2024-03-06T09:32:59;1.65;;;1.02;;
65998;SDS011;52766;56.008;37.440;2024-03-06T09:35:28;1.65;;;1.05;;
65998;SDS011;52766;56.008;37.440;2024-03-06T09:38:03;2.88;;;1.00;;
65998;SDS011;52766;56.008;37.440;2024-03-06T09:40:32;5.95;;;1.10;;
65998;SDS011;52766;56.008;37.440;2024-03-06T09:43:05;4.93;;;1.58;;
65998;SDS011;52766;56.008;37.440;2024-03-06T09:45:41;3.17;;;1.50;;
65998;SDS011;52766;56.008;37.440;2024-03-06T09:48:09;7.85;;;2.40;;
65998;SDS011;52766;56.008;37.440;2024-03-06T09:50:41;2.35;;;1.40;;
65998;SDS011;52766;56.008;37.440;2024-03-06T09:53:14;6.88;;;1.77;;
65998;SDS011;52766;56.008;37.440;2024-03-06T09:55:43;2.95;;;1.17;;
65998;SDS011;52766;56.008;37.440;2024-03-06T09:58:12;5.10;;;1.42;;
65998;SDS011;52766;56.008;37.440;2024-03-06T10:00:40;5.00;;;1.10;;
65998;SDS011;52766;56.008;37.440;2024-03-06T10:03:08;3.92;;;0.90;;
65998;SDS011;52766;56.008;37.440;2024-03-06T10:05:43;2.50;;;1.30;;
65998;SDS011;52766;56.008;37.440;2024-03-06T10:08:13;3.10;;;1.30;;
65998;SDS011;52766;56.008;37.440;2024-03-06T10:10:42;1.88;;;1.00;;
65998;SDS011;52766;56.008;37.440;2024-03-06T10:13:09;3.63;;;1.10;;
65998;SDS011;52766;56.008;37.440;2024-03-06T10:15:35;6.65;;;2.13;;
65998;SDS011;52766;56.008;37.440;2024-03-06T10:18:10;1.73;;;0.90;;
65998;SDS011;52766;56.008;37.440;2024-03-06T10:20:40;6.65;;;2.05;;
65998;SDS011;52766;56.008;37.440;2024-03-06T10:23:09;5.15;;;1.50;;
65998;SDS011;52766;56.008;37.440;2024-03-06T10:25:37;3.55;;;1.00;;
65998;SDS011;52766;56.008;37.440;2024-03-06T10:31:30;4.28;;;1.40;;
65998;SDS011;52766;56.008;37.440;2024-03-06T10:33:58;4.45;;;1.25;;
65998;SDS011;52766;56.008;37.440;2024-03-06T10:36:32;3.03;;;0.85;;
65998;SDS011;52766;56.008;37.440;2024-03-06T10:38:59;2.03;;;1.00;;
65998;SDS011;52766;56.008;37.440;2024-03-06T10:44:02;4.55;;;1.58;;
65998;SDS011;52766;56.008;37.440;2024-03-06T10:49:07;6.22;;;1.88;;
65998;SDS011;52766;56.008;37.440;2024-03-06T10:51:33;5.13;;;1.50;;
65998;SDS011;52766;56.008;37.440;2024-03-06T10:54:01;2.58;;;1.20;;
65998;SDS011;52766;56.008;37.440;2024-03-06T10:56:30;3.28;;;1.20;;
65998;SDS011;52766;56.008;37.440;2024-03-06T10:58:56;1.60;;;0.88;;
65998;SDS011;52766;56.008;37.440;2024-03-06T11:01:29;4.25;;;1.42;;
65998;SDS011;52766;56.008;37.440;2024-03-06T11:04:01;9.93;;;1.65;;
65998;SDS011;52766;56.008;37.440;2024-03-06T11:06:33;5.30;;;1.67;;
65998;SDS011;52766;56.008;37.440;2024-03-06T11:09:07;2.88;;;1.38;;
65998;SDS011;52766;56.008;37.440;2024-03-06T11:11:51;3.75;;;1.30;;
65998;SDS011;52766;56.008;37.440;2024-03-06T11:14:22;4.43;;;1.85;;
65998;SDS011;52766;56.008;37.440;2024-03-06T11:16:56;3.25;;;1.50;;
65998;SDS011;52766;56.008;37.440;2024-03-06T11:19:31;8.90;;;1.60;;
65998;SDS011;52766;56.008;37.440;2024-03-06T11:22:02;6.85;;;1.83;;
65998;SDS011;52766;56.008;37.440;2024-03-06T11:24:36;1.65;;;0.98;;
65998;SDS011;52766;56.008;37.440;2024-03-06T11:27:10;2.85;;;1.40;;
65998;SDS011;52766;56.008;37.440;2024-03-06T11:32:59;3.25;;;0.90;;
65998;SDS011;52766;56.008;37.440;2024-03-06T11:35:31;4.38;;;1.45;;
65998;SDS011;52766;56.008;37.440;2024-03-06T11:40:58;2.13;;;1.00;;
65998;SDS011;52766;56.008;37.440;2024-03-06T11:43:32;6.47;;;1.55;;
65998;SDS011;52766;56.008;37.440;2024-03-06T11:46:14;2.25;;;0.93;;
65998;SDS011;52766;56.008;37.440;2024-03-06T11:49:00;2.65;;;0.77;;
65998;SDS011;52766;56.008;37.440;2024-03-06T11:52:16;0.88;;;0.70;;
65998;SDS011;52766;56.008;37.440;2024-03-06T11:57:20;3.90;;;0.93;;
65998;SDS011;52766;56.008;37.440;2024-03-06T12:00:02;0.60;;;0.60;;
65998;SDS011;52766;56.008;37.440;2024-03-06T12:02:32;4.90;;;1.02;;
65998;SDS011;52766;56.008;37.440;2024-03-06T12:05:09;2.95;;;1.10;;
65998;SDS011;52766;56.008;37.440;2024-03-06T12:11:37;3.10;;;1.20;;
65998;SDS011;52766;56.008;37.440;2024-03-06T12:14:04;3.22;;;1.80;;
65998;SDS011;52766;56.008;37.440;2024-03-06T12:17:22;5.05;;;1.33;;
65998;SDS011;52766;56.008;37.440;2024-03-06T12:24:19;3.72;;;1.42;;
65998;SDS011;52766;56.008;37.440;2024-03-06T12:31:19;6.60;;;1.70;;
65998;SDS011;52766;56.008;37.440;2024-03-06T12:37:15;2.22;;;1.10;;
65998;SDS011;52766;56.008;37.440;2024-03-06T12:39:48;4.47;;;1.92;;
65998;SDS011;52766;56.008;37.440;2024-03-06T12:42:21;12.15;;;1.50;;
65998;SDS011;52766;56.008;37.440;2024-03-06T12:45:07;2.05;;;1.10;;
65998;SDS011;52766;56.008;37.440;2024-03-06T12:47:43;4.85;;;1.23;;
65998;SDS011;52766;56.008;37.440;2024-03-06T12:50:17;5.05;;;1.38;;
65998;SDS011;52766;56.008;37.440;2024-03-06T12:53:03;6.45;;;1.20;;
65998;SDS011;52766;56.008;37.440;2024-03-06T12:55:38;5.22;;;1.42;;
65998;SDS011;52766;56.008;37.440;2024-03-06T12:58:09;1.05;;;0.57;;
65998;SDS011;52766;56.008;37.440;2024-03-06T13:00:53;0.80;;;0.80;;
65998;SDS011;52766;56.008;37.440;2024-03-06T13:03:26;3.25;;;1.00;;
65998;SDS011;52766;56.008;37.440;2024-03-06T13:05:56;7.28;;;1.42;;
65998;SDS011;52766;56.008;37.440;2024-03-06T13:08:25;5.30;;;1.67;;
65998;SDS011;52766;56.008;37.440;2024-03-06T13:11:18;3.58;;;1.05;;
65998;SDS011;52766;56.008;37.440;2024-03-06T13:16:45;0.90;;;0.60;;
65998;SDS011;52766;56.008;37.440;2024-03-06T13:26:33;9.50;;;1.95;;
65998;SDS011;52766;56.008;37.440;2024-03-06T13:29:12;2.80;;;0.80;;
65998;SDS011;52766;56.008;37.440;2024-03-06T13:32:00;0.85;;;0.77;;
65998;SDS011;52766;56.008;37.440;2024-03-06T13:34:35;1.13;;;0.65;;
65998;SDS011;52766;56.008;37.440;2024-03-06T13:37:05;6.57;;;2.20;;
65998;SDS011;52766;56.008;37.440;2024-03-06T13:39:36;3.10;;;0.98;;
65998;SDS011;52766;56.008;37.440;2024-03-06T13:42:07;7.63;;;1.48;;
65998;SDS011;52766;56.008;37.440;2024-03-06T13:44:41;3.20;;;0.55;;
65998;SDS011;52766;56.008;37.440;2024-03-06T13:47:21;1.52;;;0.77;;
65998;SDS011;52766;56.008;37.440;2024-03-06T13:49:52;3.70;;;1.08;;
65998;SDS011;52766;56.008;37.440;2024-03-06T13:52:44;3.13;;;1.15;;
65998;SDS011;52766;56.008;37.440;2024-03-06T13:55:17;2.08;;;0.90;;
65998;SDS011;52766;56.008;37.440;2024-03-06T13:57:43;1.83;;;0.85;;
65998;SDS011;52766;56.008;37.440;2024-03-06T14:00:26;1.92;;;1.00;;
65998;SDS011;52766;56.008;37.440;2024-03-06T14:02:59;1.35;;;0.73;;
65998;SDS011;52766;56.008;37.440;2024-03-06T14:22:04;2.45;;;0.82;;
65998;SDS011;52766;56.008;37.440;2024-03-06T14:25:04;1.55;;;0.80;;
65998;SDS011;52766;56.008;37.440;2024-03-06T14:32:01;3.03;;;0.80;;
65998;SDS011;52766;56.008;37.440;2024-03-06T14:34:41;2.15;;;0.80;;
65998;SDS011;52766;56.008;37.440;2024-03-06T14:45:02;1.67;;;0.80;;
65998;SDS011;52766;56.008;37.440;2024-03-06T14:48:02;1.90;;;1.17;;
65998;SDS011;52766;56.008;37.440;2024-03-06T14:54:34;3.83;;;0.88;;
65998;SDS011;52766;56.008;37.440;2024-03-06T15:27:36;2.45;;;1.05;;
65998;SDS011;52766;56.008;37.440;2024-03-06T15:49:48;0.90;;;0.73;;
65998;SDS011;52766;56.008;37.440;2024-03-06T16:00:37;5.55;;;1.40;;
65998;SDS011;52766;56.008;37.440;2024-03-06T16:04:29;5.72;;;2.20;;
65998;SDS011;52766;56.008;37.440;2024-03-06T16:11:14;4.20;;;1.75;;
65998;SDS011;52766;56.008;37.440;2024-03-06T16:14:59;3.75;;;1.38;;
65998;SDS011;52766;56.008;37.440;2024-03-06T16:18:03;2.95;;;1.40;;
65998;SDS011;52766;56.008;37.440;2024-03-06T16:20:57;5.18;;;2.10;;
65998;SDS011;52766;56.008;37.440;2024-03-06T16:23:37;3.17;;;1.67;;
65998;SDS011;52766;56.008;37.440;2024-03-06T16:26:56;2.83;;;1.33;;
65998;SDS011;52766;56.008;37.440;2024-03-06T16:30:30;3.38;;;1.58;;
65998;SDS011;52766;56.008;37.440;2024-03-06T17:15:38;7.20;;;3.17;;
65998;SDS011;52766;56.008;37.440;2024-03-06T17:18:36;4.70;;;1.70;;
65998;SDS011;52766;56.008;37.440;2024-03-06T17:34:04;9.60;;;2.70;;
65998;SDS011;52766;56.008;37.440;2024-03-06T18:12:03;13.27;;;5.63;;
65998;SDS011;52766;56.008;37.440;2024-03-06T18:14:37;15.98;;;5.03;;
65998;SDS011;52766;56.008;37.440;2024-03-06T18:17:05;23.63;;;5.68;;
65998;SDS011;52766;56.008;37.440;2024-03-06T18:19:37;29.65;;;6.97;;
65998;SDS011;52766;56.008;37.440;2024-03-06T18:22:04;27.50;;;6.90;;
65998;SDS011;52766;56.008;37.440;2024-03-06T18:24:36;27.77;;;6.47;;
65998;SDS011;52766;56.008;37.440;2024-03-06T18:27:07;40.08;;;8.55;;
65998;SDS011;52766;56.008;37.440;2024-03-06T18:29:40;42.50;;;6.95;;
65998;SDS011;52766;56.008;37.440;2024-03-06T18:35:59;34.08;;;5.57;;
65998;SDS011;52766;56.008;37.440;2024-03-06T18:38:36;26.38;;;6.78;;
65998;SDS011;52766;56.008;37.440;2024-03-06T18:44:55;28.25;;;7.28;;
65998;SDS011;52766;56.008;37.440;2024-03-06T18:47:34;19.05;;;6.13;;
65998;SDS011;52766;56.008;37.440;2024-03-06T18:50:44;30.58;;;9.90;;
65998;SDS011;52766;56.008;37.440;2024-03-06T18:53:24;43.80;;;13.50;;
65998;SDS011;52766;56.008;37.440;2024-03-06T18:56:45;40.97;;;11.30;;
65998;SDS011;52766;56.008;37.440;2024-03-06T19:00:15;71.32;;;18.38;;
65998;SDS011;52766;56.008;37.440;2024-03-06T19:03:31;54.65;;;15.57;;
65998;SDS011;52766;56.008;37.440;2024-03-06T19:06:45;8.02;;;3.50;;
65998;SDS011;52766;56.008;37.440;2024-03-06T19:09:43;40.53;;;8.40;;
65998;SDS011;52766;56.008;37.440;2024-03-06T19:12:26;27.00;;;5.63;;
65998;SDS011;52766;56.008;37.440;2024-03-06T19:15:20;25.17;;;6.43;;